Flight Track Log - Related Links

Times and Time Zones

All times are in EDT time to prevent confusion due to time zone crossing. See the ASQ5740 flight status page for this flight to view local times or setup timezone preferences in your user account.

Time Position Orientation Groundspeed Altitude Reporting Facility
EDT Latitude Longitude Course Direction KTS MPH feet Rate Location/Type
Sat 07:22:11 PM 33.0056 -80.0739 314° West 216 249 3,800  Level Jacksonville Center
Sat 07:23:00 PM 33.1211 -80.1358 335° Northwest  Level FlightAware Approximate
Sat 07:23:11 PM 33.0669 -80.1114 333° Northwest 251 289 6,500  Level Jacksonville Center
Sat 07:24:00 PM 33.1982 -80.1786 335° Northwest  Level FlightAware Approximate
Sat 07:24:11 PM 33.1328 -80.1567 330° Northwest 265 305 8,400  Level Jacksonville Center
Sat 07:25:00 PM 33.2755 -80.2211 337° Northwest  Level FlightAware Approximate
Sat 07:25:11 PM 33.2047 -80.2039 331° Northwest 279 321 10,500  Level Jacksonville Center
Sat 07:26:00 PM 33.3473 -80.2709 309° West  Level FlightAware Approximate
Sat 07:26:11 PM 33.2747 -80.2542 329° Northwest 290 334 12,400  Level Jacksonville Center
Sat 07:27:00 PM 33.4003 -80.3504 314° West  Level FlightAware Approximate
Sat 07:27:11 PM 33.3467 -80.3067 329° Northwest 295 339 13,900  Level Jacksonville Center
Sat 07:28:11 PM 33.4228 -80.3592 330° Northwest 302 348 15,300 1,450 Climbing Jacksonville Center
Sat 07:29:11 PM 33.5011 -80.4142 330° Northwest 312 359 16,800 1,350 Climbing Jacksonville Center
Sat 07:30:11 PM 33.5794 -80.4694 330° Northwest 318 366 18,000 1,150 Climbing Jacksonville Center
Sat 07:31:11 PM 33.6597 -80.5269 329° Northwest 329 379 19,100 1,150 Climbing Jacksonville Center
Sat 07:32:11 PM 33.7403 -80.5847 329° Northwest 329 379 20,300 1,150 Climbing Jacksonville Center
Sat 07:33:11 PM 33.8225 -80.6428 330° Northwest 329 379 21,400 1,050 Climbing Jacksonville Center
Sat 07:34:11 PM 33.9050 -80.7031 329° Northwest 336 387 22,400 850 Climbing Jacksonville Center
Sat 07:35:11 PM 33.9875 -80.7586 331° Northwest 341 392 23,100 700 Climbing Jacksonville Center
Sat 07:36:11 PM 34.0719 -80.8242 327° Northwest 341 392 23,800 691 Climbing Jacksonville Center
Sat 07:37:56 PM 34.2222 -80.9261 331° Northwest 337 388 25,000 618 Climbing Atlanta Center
Sat 07:38:56 PM 34.3136 -80.9906 330° Northwest 354 407 25,500 500 Climbing Atlanta Center
Sat 07:39:56 PM 34.4050 -81.0603 328° Northwest 377 434 26,000 250 Climbing Atlanta Center
Sat 07:40:56 PM 34.4944 -81.1278 328° Northwest 384 442 26,000  Level Atlanta Center
Sat 07:41:56 PM 34.5942 -81.1950 331° Northwest 401 461 26,000  Level Atlanta Center
Sat 07:42:56 PM 34.6894 -81.2650 329° Northwest 409 471 26,000  Level Atlanta Center
Sat 07:43:56 PM 34.7850 -81.3353 329° Northwest 404 465 26,000  Level Atlanta Center
Sat 07:44:56 PM 34.8867 -81.4078 330° Northwest 392 451 26,000  Level Atlanta Center
Sat 07:45:56 PM 34.9758 -81.4761 328° Northwest 392 451 26,000  Level Atlanta Center
Sat 07:46:56 PM 35.0647 -81.5392 330° Northwest 392 451 26,000  Level Atlanta Center
Sat 07:47:56 PM 35.1536 -81.6050 329° Northwest 382 440 26,000  Level Atlanta Center
Sat 07:48:56 PM 35.2425 -81.6686 330° Northwest 376 433 26,000  Level Atlanta Center
Sat 07:49:56 PM 35.3294 -81.7322 329° Northwest 370 426 26,000  Level Atlanta Center
Sat 07:50:56 PM 35.4142 -81.7989 327° Northwest 365 420 26,000  Level Atlanta Center
Sat 07:51:56 PM 35.4922 -81.8553 330° Northwest 365 420 26,000  Level Atlanta Center
Sat 07:52:56 PM 35.5769 -81.9169 329° Northwest 365 420 26,000  Level Atlanta Center
Sat 07:53:56 PM 35.6633 -81.9811 329° Northwest 365 420 26,000  Level Atlanta Center
Sat 07:54:56 PM 35.7481 -82.0431 329° Northwest 365 420 26,000  Level Atlanta Center
Sat 07:55:56 PM 35.8428 -82.1125 329° Northwest 360 414 26,000  Level Atlanta Center
Sat 07:57:45 PM 35.9942 -82.2253 329° Northwest 358 412 26,000  Level Indianapolis Center
Sat 07:58:46 PM 36.0817 -82.2900 329° Northwest 363 418 26,000  Level Indianapolis Center
Sat 07:59:47 PM 36.1672 -82.3561 328° Northwest 364 419 26,000  Level Indianapolis Center
Sat 08:00:49 PM 36.2528 -82.4203 329° Northwest 360 414 26,000  Level Indianapolis Center
Sat 08:01:50 PM 36.3408 -82.4867 329° Northwest 367 422 26,000  Level Indianapolis Center
Sat 08:02:51 PM 36.4289 -82.5542 328° Northwest 368 423 26,000  Level Indianapolis Center
Sat 08:03:52 PM 36.5169 -82.6211 329° Northwest 370 426 26,000  Level Indianapolis Center
Sat 08:04:53 PM 36.6200 -82.7006 328° Northwest 372 428 26,000  Level Indianapolis Center
Sat 08:05:54 PM 36.7089 -82.7692 328° Northwest 374 430 26,000  Level Indianapolis Center
Sat 08:06:56 PM 36.7969 -82.8369 328° Northwest 371 427 26,000  Level Indianapolis Center
Sat 08:07:57 PM 36.8900 -82.9092 328° Northwest 378 435 26,000  Level Indianapolis Center
Sat 08:08:58 PM 36.9678 -82.9700 328° Northwest 380 437 26,000  Level Indianapolis Center
Sat 08:09:59 PM 37.0714 -83.0497 328° Northwest 373 429 26,000  Level Indianapolis Center
Sat 08:11:00 PM 37.1600 -83.1183 328° Northwest 373 429 26,000  Level Indianapolis Center
Sat 08:12:01 PM 37.2478 -83.1869 328° Northwest 372 428 26,000  Level Indianapolis Center
Sat 08:13:03 PM 37.3356 -83.2556 328° Northwest 372 428 26,000  Level Indianapolis Center
Sat 08:14:04 PM 37.4239 -83.3253 328° Northwest 372 428 26,000  Level Indianapolis Center
Sat 08:15:05 PM 37.5114 -83.3939 328° Northwest 371 427 26,000  Level Indianapolis Center
Sat 08:16:06 PM 37.5997 -83.4642 328° Northwest 373 429 26,000  Level Indianapolis Center
Sat 08:17:07 PM 37.6878 -83.5339 328° Northwest 373 429 26,000  Level Indianapolis Center
Sat 08:18:08 PM 37.7758 -83.6042 328° Northwest 373 429 26,000  Level Indianapolis Center
Sat 08:19:10 PM 37.8639 -83.6739 328° Northwest 373 429 26,000  Level Indianapolis Center
Sat 08:20:11 PM 37.9517 -83.7428 328° Northwest 372 428 26,000  Level Indianapolis Center
Sat 08:21:12 PM 38.0528 -83.8228 328° Northwest 366 421 26,000  Level Indianapolis Center
Sat 08:22:13 PM 38.1358 -83.8917 327° Northwest 357 411 26,000  Level Indianapolis Center
Sat 08:23:14 PM 38.2183 -83.9583 328° Northwest 353 406 26,000  Level Indianapolis Center
Sat 08:24:15 PM 38.2983 -84.0225 328° Northwest 344 396 26,000  Level Indianapolis Center
Sat 08:25:16 PM 38.3786 -84.0881 327° Northwest 341 392 26,000  Level Indianapolis Center
Sat 08:26:17 PM 38.4592 -84.1536 327° Northwest 341 392 26,000  Level Indianapolis Center
Sat 08:27:19 PM 38.5389 -84.2203 327° Northwest 343 395 26,000  Level Indianapolis Center
Sat 08:28:20 PM 38.6225 -84.2794 331° Northwest 342 394 26,000  Level Indianapolis Center
Sat 08:29:21 PM 38.7094 -84.3422 331° Northwest 342 394 26,000  Level Indianapolis Center
Sat 08:30:22 PM 38.7933 -84.4036 330° Northwest 342 394 26,000  Level Indianapolis Center
Sat 08:31:23 PM 38.8781 -84.4633 331° Northwest 341 392 26,000  Level Indianapolis Center
Sat 08:32:24 PM 38.9606 -84.5261 329° Northwest 341 392 26,000  Level Indianapolis Center
Sat 08:33:25 PM 39.0447 -84.5872 331° Northwest 342 394 26,000  Level Indianapolis Center
Sat 08:34:26 PM 39.1281 -84.6483 330° Northwest 341 392 26,000  Level Indianapolis Center
Sat 08:35:28 PM 39.2097 -84.7094 330° Northwest 337 388 26,000  Level Indianapolis Center
Sat 08:36:29 PM 39.2944 -84.7708 331° Northwest 342 394 26,000  Level Indianapolis Center
Sat 08:37:30 PM 39.3797 -84.8350 330° Northwest 348 400 26,000  Level Indianapolis Center
Sat 08:38:31 PM 39.4589 -84.8931 330° Northwest 349 402 26,000  Level Indianapolis Center
Sat 08:39:32 PM 39.5592 -84.9686 330° Northwest 349 402 26,000  Level Indianapolis Center
Sat 08:40:33 PM 39.6439 -85.0317 330° Northwest 351 404 26,000  Level Indianapolis Center
Sat 08:41:34 PM 39.7283 -85.0958 330° Northwest 352 405 26,000  Level Indianapolis Center
Sat 08:42:35 PM 39.8128 -85.1594 330° Northwest 353 406 26,000  Level Indianapolis Center
Sat 08:43:36 PM 39.9003 -85.2253 330° Northwest 363 418 26,000  Level Indianapolis Center
Sat 08:44:37 PM 39.9911 -85.2936 330° Northwest 375 432 26,000  Level Indianapolis Center
Sat 08:45:39 PM 40.0858 -85.3658 330° Northwest 390 449 26,000  Level Indianapolis Center
Sat 08:46:40 PM 40.1822 -85.4392 330° Northwest 400 460 26,000  Level Indianapolis Center
Sat 08:47:41 PM 40.2783 -85.5158 329° Northwest 407 468 26,000  Level Indianapolis Center
Sat 08:48:42 PM 40.3667 -85.6481 311° West 407 468 26,000  Level Indianapolis Center
Sat 08:49:43 PM 40.4408 -85.7606 311° West 406 467 26,000  Level Indianapolis Center
Sat 08:50:44 PM 40.5147 -85.8725 311° West 410 472 26,000 -49 Level Indianapolis Center
Sat 08:51:45 PM 40.5883 -85.9853 311° West 411 473 25,900 -541 Descending Indianapolis Center
Sat 08:52:46 PM 40.6647 -86.1000 311° West 416 479 24,900 -1,033 Descending Indianapolis Center
Sat 08:53:47 PM 40.7417 -86.2169 311° West 423 487 23,800 -934 Descending Indianapolis Center
Sat 08:54:48 PM 40.8161 -86.3350 310° West 422 486 23,000 -393 Descending Indianapolis Center
Sat 08:55:49 PM 40.8908 -86.4489 311° West 414 476 23,000 -269 Level Indianapolis Center
Sat 08:57:02 PM 40.9892 -86.6025 310° West 413 475 22,400 -1,289 Descending Chicago Center
Sat 08:58:04 PM 41.0600 -86.7133 310° West 395 455 20,100 -2,129 Descending Chicago Center
Sat 08:59:06 PM 41.1258 -86.8142 311° West 380 437 18,000 -2,098 Descending Chicago Center
Sat 09:00:07 PM 41.1961 -86.9253 310° West 392 451 15,800 -2,341 Descending Chicago Center
Sat 09:01:09 PM 41.2769 -87.0533 310° West 380 437 13,200 -2,098 Descending Chicago Center
Sat 09:02:10 PM 41.3392 -87.1539 310° West 360 414 11,500 -1,065 Descending Chicago Center
Sat 09:03:13 PM 41.4053 -87.2411 315° West 344 396 11,000 -242 Descending Chicago Center
Sat 09:04:14 PM 41.4750 -87.3250 318° Northwest 341 392 11,000  Level Chicago Center
Sat 09:05:15 PM 41.5467 -87.4075 319° Northwest 344 396 11,000 -49 Level Chicago Center
Sat 09:06:17 PM 41.6328 -87.5028 320° Northwest 340 391 10,900 -439 Descending Chicago Center
Sat 09:07:18 PM 41.7025 -87.5797 321° Northwest 328 377 10,100 -829 Descending Chicago Center
Sat 09:08:20 PM 41.7583 -87.6439 319° Northwest 272 313 9,200 -927 Descending Chicago Center
Sat 09:09:21 PM 41.8156 -87.7047 322° Northwest 266 306 8,200 -927 Descending Chicago Center
Sat 09:10:23 PM 41.8864 -87.7072 358° North 257 296 7,300 -581 Descending Chicago Center
Sat 09:11:25 PM 41.9458 -87.7056 North 223 257 7,000 -439 Descending Chicago Center
Sat 09:12:26 PM 42.0069 -87.6919 North 194 223 6,400 -780 Descending Chicago Center
Sat 09:13:28 PM 42.0489 -87.7094 343° North 188 216 5,400 -1,171 Descending Chicago Center
Sat 09:14:29 PM 42.0847 -87.7503 320° Northwest 175 201 4,000 -1,377 Descending Chicago Center

Login

Don't have an account? Register now (free) for customized features, flight alerts, and more!